sensor_id;sensor_type;location;lat;lon;timestamp;pressure;altitude;pressure_sealevel;temperature;humidity
49915;BME280;35806;47.958;13.158;2023-05-22T00:00:05;94380.52;;;16.90;39.82
49915;BME280;35806;47.958;13.158;2023-05-22T00:02:33;94382.58;;;17.11;39.30
49915;BME280;35806;47.958;13.158;2023-05-22T00:05:00;94380.01;;;16.99;39.41
49915;BME280;35806;47.958;13.158;2023-05-22T00:07:27;94377.91;;;17.35;38.76
49915;BME280;35806;47.958;13.158;2023-05-22T00:09:54;94378.94;;;17.20;38.87
49915;BME280;35806;47.958;13.158;2023-05-22T00:12:22;94378.14;;;17.39;40.02
49915;BME280;35806;47.958;13.158;2023-05-22T00:14:49;94380.12;;;17.12;38.95
49915;BME280;35806;47.958;13.158;2023-05-22T00:17:16;94377.75;;;16.92;39.29
49915;BME280;35806;47.958;13.158;2023-05-22T00:19:44;94379.60;;;17.39;38.85
49915;BME280;35806;47.958;13.158;2023-05-22T00:22:11;94381.48;;;17.05;38.87
49915;BME280;35806;47.958;13.158;2023-05-22T00:24:38;94378.11;;;17.04;39.15
49915;BME280;35806;47.958;13.158;2023-05-22T00:27:06;94376.67;;;16.27;39.41
49915;BME280;35806;47.958;13.158;2023-05-22T00:29:33;94376.28;;;16.45;39.62
49915;BME280;35806;47.958;13.158;2023-05-22T00:32:01;94373.44;;;16.44;40.23
49915;BME280;35806;47.958;13.158;2023-05-22T00:34:29;94375.89;;;17.53;40.12
49915;BME280;35806;47.958;13.158;2023-05-22T00:36:56;94372.52;;;17.57;40.87
49915;BME280;35806;47.958;13.158;2023-05-22T00:39:24;94371.59;;;18.23;40.44
49915;BME280;35806;47.958;13.158;2023-05-22T00:41:51;94374.32;;;18.33;40.26
49915;BME280;35806;47.958;13.158;2023-05-22T00:44:18;94375.85;;;18.28;38.72
49915;BME280;35806;47.958;13.158;2023-05-22T00:46:45;94375.99;;;18.08;38.73
49915;BME280;35806;47.958;13.158;2023-05-22T00:49:13;94374.51;;;18.58;40.90
49915;BME280;35806;47.958;13.158;2023-05-22T00:51:41;94373.31;;;17.91;40.44
49915;BME280;35806;47.958;13.158;2023-05-22T00:54:09;94374.15;;;17.26;39.50
49915;BME280;35806;47.958;13.158;2023-05-22T00:56:38;94370.72;;;17.64;40.99
49915;BME280;35806;47.958;13.158;2023-05-22T00:59:07;94369.58;;;18.04;39.07
49915;BME280;35806;47.958;13.158;2023-05-22T01:15:34;94369.74;;;15.31;41.15
49915;BME280;35806;47.958;13.158;2023-05-22T01:18:09;94368.93;;;15.35;41.66
49915;BME280;35806;47.958;13.158;2023-05-22T01:20:41;94367.31;;;15.67;41.83
49915;BME280;35806;47.958;13.158;2023-05-22T01:23:40;94368.47;;;15.22;43.14
49915;BME280;35806;47.958;13.158;2023-05-22T01:26:21;94371.15;;;16.30;41.22
49915;BME280;35806;47.958;13.158;2023-05-22T01:29:07;94372.38;;;16.21;41.62
49915;BME280;35806;47.958;13.158;2023-05-22T01:31:38;94372.30;;;16.28;42.11
49915;BME280;35806;47.958;13.158;2023-05-22T01:34:08;94371.70;;;16.21;42.12
49915;BME280;35806;47.958;13.158;2023-05-22T01:36:36;94374.20;;;16.84;42.10
49915;BME280;35806;47.958;13.158;2023-05-22T01:39:04;94371.90;;;16.34;42.42
49915;BME280;35806;47.958;13.158;2023-05-22T01:41:38;94372.92;;;16.39;42.60
49915;BME280;35806;47.958;13.158;2023-05-22T01:44:06;94369.50;;;16.07;42.56
49915;BME280;35806;47.958;13.158;2023-05-22T01:46:33;94370.95;;;16.08;42.57
49915;BME280;35806;47.958;13.158;2023-05-22T01:49:00;94370.04;;;16.33;42.92
49915;BME280;35806;47.958;13.158;2023-05-22T01:51:35;94368.46;;;15.78;42.53
49915;BME280;35806;47.958;13.158;2023-05-22T01:54:11;94364.83;;;15.16;43.39
49915;BME280;35806;47.958;13.158;2023-05-22T01:56:46;94367.82;;;15.08;43.89
49915;BME280;35806;47.958;13.158;2023-05-22T01:59:20;94367.34;;;15.69;43.72
49915;BME280;35806;47.958;13.158;2023-05-22T02:01:50;94369.55;;;15.82;43.18
49915;BME280;35806;47.958;13.158;2023-05-22T02:04:19;94368.66;;;15.21;43.67
49915;BME280;35806;47.958;13.158;2023-05-22T02:06:47;94366.60;;;15.41;43.24
49915;BME280;35806;47.958;13.158;2023-05-22T02:09:17;94368.28;;;15.44;42.94
49915;BME280;35806;47.958;13.158;2023-05-22T02:11:47;94363.71;;;15.23;42.96
49915;BME280;35806;47.958;13.158;2023-05-22T02:14:14;94363.80;;;15.60;43.43
49915;BME280;35806;47.958;13.158;2023-05-22T02:16:42;94365.18;;;14.67;44.88
49915;BME280;35806;47.958;13.158;2023-05-22T02:19:09;94362.47;;;15.49;44.51
49915;BME280;35806;47.958;13.158;2023-05-22T02:21:36;94361.09;;;15.76;43.54
49915;BME280;35806;47.958;13.158;2023-05-22T02:24:04;94363.92;;;16.20;42.23
49915;BME280;35806;47.958;13.158;2023-05-22T02:26:31;94361.27;;;16.68;41.98
49915;BME280;35806;47.958;13.158;2023-05-22T02:28:58;94363.12;;;16.07;42.03
49915;BME280;35806;47.958;13.158;2023-05-22T02:31:26;94357.55;;;16.25;41.94
49915;BME280;35806;47.958;13.158;2023-05-22T02:33:53;94353.87;;;15.58;42.31
49915;BME280;35806;47.958;13.158;2023-05-22T02:36:20;94352.69;;;15.40;42.64
49915;BME280;35806;47.958;13.158;2023-05-22T02:38:48;94354.72;;;16.43;44.30
49915;BME280;35806;47.958;13.158;2023-05-22T02:41:15;94356.49;;;15.64;41.89
49915;BME280;35806;47.958;13.158;2023-05-22T02:43:42;94353.10;;;16.03;42.83
49915;BME280;35806;47.958;13.158;2023-05-22T02:46:10;94350.52;;;15.67;42.47
49915;BME280;35806;47.958;13.158;2023-05-22T02:48:37;94351.90;;;15.72;41.64
49915;BME280;35806;47.958;13.158;2023-05-22T02:51:04;94350.47;;;16.42;42.77
49915;BME280;35806;47.958;13.158;2023-05-22T02:53:31;94351.86;;;16.35;41.12
49915;BME280;35806;47.958;13.158;2023-05-22T02:55:58;94354.26;;;15.75;41.79
49915;BME280;35806;47.958;13.158;2023-05-22T02:58:25;94355.71;;;14.90;42.29
49915;BME280;35806;47.958;13.158;2023-05-22T03:00:52;94351.65;;;15.44;42.42
49915;BME280;35806;47.958;13.158;2023-05-22T03:03:19;94354.85;;;15.31;42.18
49915;BME280;35806;47.958;13.158;2023-05-22T03:05:46;94356.73;;;15.74;42.61
49915;BME280;35806;47.958;13.158;2023-05-22T03:08:14;94357.00;;;16.69;42.30
49915;BME280;35806;47.958;13.158;2023-05-22T03:10:41;94357.08;;;16.37;42.32
49915;BME280;35806;47.958;13.158;2023-05-22T03:13:08;94358.21;;;15.82;41.37
49915;BME280;35806;47.958;13.158;2023-05-22T03:15:35;94359.24;;;16.33;41.19
49915;BME280;35806;47.958;13.158;2023-05-22T03:18:02;94361.13;;;16.36;40.28
49915;BME280;35806;47.958;13.158;2023-05-22T03:20:30;94361.27;;;15.88;40.78
49915;BME280;35806;47.958;13.158;2023-05-22T03:22:57;94362.03;;;16.42;41.58
49915;BME280;35806;47.958;13.158;2023-05-22T03:25:24;94363.62;;;16.36;40.60
49915;BME280;35806;47.958;13.158;2023-05-22T03:27:51;94364.38;;;16.84;42.97
49915;BME280;35806;47.958;13.158;2023-05-22T03:30:18;94368.57;;;16.44;42.81
49915;BME280;35806;47.958;13.158;2023-05-22T03:32:46;94371.42;;;17.35;43.28
49915;BME280;35806;47.958;13.158;2023-05-22T03:35:13;94371.14;;;16.93;43.52
49915;BME280;35806;47.958;13.158;2023-05-22T03:37:40;94368.18;;;16.72;44.99
49915;BME280;35806;47.958;13.158;2023-05-22T03:40:07;94363.04;;;17.06;44.23
49915;BME280;35806;47.958;13.158;2023-05-22T03:42:35;94360.82;;;16.70;44.88
49915;BME280;35806;47.958;13.158;2023-05-22T03:45:02;94366.53;;;16.72;40.86
49915;BME280;35806;47.958;13.158;2023-05-22T03:47:30;94368.13;;;16.42;40.38
49915;BME280;35806;47.958;13.158;2023-05-22T03:49:57;94362.06;;;16.33;43.14
49915;BME280;35806;47.958;13.158;2023-05-22T03:52:24;94362.73;;;16.03;45.91
49915;BME280;35806;47.958;13.158;2023-05-22T03:54:51;94365.92;;;16.33;42.70
49915;BME280;35806;47.958;13.158;2023-05-22T03:57:18;94366.83;;;15.95;41.52
49915;BME280;35806;47.958;13.158;2023-05-22T03:59:45;94370.92;;;15.78;45.42
49915;BME280;35806;47.958;13.158;2023-05-22T04:02:13;94367.67;;;16.00;41.76
49915;BME280;35806;47.958;13.158;2023-05-22T04:04:40;94370.40;;;15.66;44.63
49915;BME280;35806;47.958;13.158;2023-05-22T04:07:08;94368.49;;;16.20;42.39
49915;BME280;35806;47.958;13.158;2023-05-22T04:09:35;94366.90;;;16.21;46.26
49915;BME280;35806;47.958;13.158;2023-05-22T04:12:03;94369.98;;;15.94;45.71
49915;BME280;35806;47.958;13.158;2023-05-22T04:14:30;94362.31;;;15.98;45.63
49915;BME280;35806;47.958;13.158;2023-05-22T04:16:58;94363.00;;;16.12;44.39
49915;BME280;35806;47.958;13.158;2023-05-22T04:19:26;94364.36;;;15.68;46.94
49915;BME280;35806;47.958;13.158;2023-05-22T04:21:53;94368.90;;;15.87;47.28
49915;BME280;35806;47.958;13.158;2023-05-22T04:24:20;94370.71;;;16.20;47.75
49915;BME280;35806;47.958;13.158;2023-05-22T04:26:47;94371.16;;;16.03;48.45
49915;BME280;35806;47.958;13.158;2023-05-22T04:29:15;94371.73;;;16.12;48.41
49915;BME280;35806;47.958;13.158;2023-05-22T04:31:42;94376.17;;;16.35;48.61
49915;BME280;35806;47.958;13.158;2023-05-22T04:34:10;94376.13;;;16.67;44.96
49915;BME280;35806;47.958;13.158;2023-05-22T04:36:38;94377.46;;;16.75;43.20
49915;BME280;35806;47.958;13.158;2023-05-22T04:39:05;94378.25;;;16.16;46.34
49915;BME280;35806;47.958;13.158;2023-05-22T04:41:32;94377.20;;;16.82;47.06
49915;BME280;35806;47.958;13.158;2023-05-22T04:43:59;94377.13;;;16.89;47.71
49915;BME280;35806;47.958;13.158;2023-05-22T04:46:26;94375.44;;;16.71;48.90
49915;BME280;35806;47.958;13.158;2023-05-22T04:48:54;94379.36;;;16.98;48.14
49915;BME280;35806;47.958;13.158;2023-05-22T04:51:21;94377.55;;;17.14;48.55
49915;BME280;35806;47.958;13.158;2023-05-22T04:53:49;94374.28;;;17.45;47.08
49915;BME280;35806;47.958;13.158;2023-05-22T04:56:16;94372.24;;;17.49;47.29
49915;BME280;35806;47.958;13.158;2023-05-22T04:58:43;94372.28;;;17.75;46.75
49915;BME280;35806;47.958;13.158;2023-05-22T05:01:11;94375.81;;;17.96;47.11
49915;BME280;35806;47.958;13.158;2023-05-22T05:03:38;94376.24;;;17.89;45.33
49915;BME280;35806;47.958;13.158;2023-05-22T05:06:05;94377.00;;;17.96;45.93
49915;BME280;35806;47.958;13.158;2023-05-22T05:08:32;94380.81;;;18.27;45.40
49915;BME280;35806;47.958;13.158;2023-05-22T05:10:58;94381.86;;;18.43;45.07
49915;BME280;35806;47.958;13.158;2023-05-22T05:13:26;94383.88;;;18.76;44.59
49915;BME280;35806;47.958;13.158;2023-05-22T05:15:54;94382.07;;;18.97;44.33
49915;BME280;35806;47.958;13.158;2023-05-22T05:18:21;94384.09;;;19.35;44.72
49915;BME280;35806;47.958;13.158;2023-05-22T05:20:48;94387.19;;;19.34;40.98
49915;BME280;35806;47.958;13.158;2023-05-22T05:23:15;94389.15;;;19.84;37.37
49915;BME280;35806;47.958;13.158;2023-05-22T05:25:42;94388.19;;;19.59;38.03
49915;BME280;35806;47.958;13.158;2023-05-22T05:28:09;94391.82;;;19.88;37.44
49915;BME280;35806;47.958;13.158;2023-05-22T05:30:37;94392.35;;;19.70;37.58
49915;BME280;35806;47.958;13.158;2023-05-22T05:33:04;94388.40;;;20.61;36.51
49915;BME280;35806;47.958;13.158;2023-05-22T05:35:31;94393.12;;;20.64;37.96
49915;BME280;35806;47.958;13.158;2023-05-22T05:37:58;94390.21;;;20.60;35.98
49915;BME280;35806;47.958;13.158;2023-05-22T05:40:25;94388.76;;;20.81;37.39
49915;BME280;35806;47.958;13.158;2023-05-22T05:42:53;94389.02;;;21.13;36.49
49915;BME280;35806;47.958;13.158;2023-05-22T05:45:20;94388.08;;;21.00;36.21
49915;BME280;35806;47.958;13.158;2023-05-22T05:47:48;94390.77;;;21.34;35.92
49915;BME280;35806;47.958;13.158;2023-05-22T05:50:15;94390.23;;;21.33;34.81
49915;BME280;35806;47.958;13.158;2023-05-22T05:52:42;94394.29;;;21.49;34.64
49915;BME280;35806;47.958;13.158;2023-05-22T05:55:09;94399.64;;;21.09;35.62
49915;BME280;35806;47.958;13.158;2023-05-22T05:57:36;94397.34;;;21.95;33.63
49915;BME280;35806;47.958;13.158;2023-05-22T06:00:05;94400.57;;;21.79;33.77
49915;BME280;35806;47.958;13.158;2023-05-22T06:02:32;94400.11;;;21.59;34.64
49915;BME280;35806;47.958;13.158;2023-05-22T06:04:59;94398.52;;;21.75;33.60
49915;BME280;35806;47.958;13.158;2023-05-22T06:07:26;94400.35;;;21.81;33.87
49915;BME280;35806;47.958;13.158;2023-05-22T06:09:53;94402.47;;;21.98;32.80
49915;BME280;35806;47.958;13.158;2023-05-22T06:12:21;94402.78;;;22.11;33.15
49915;BME280;35806;47.958;13.158;2023-05-22T06:14:48;94401.41;;;21.49;33.12
49915;BME280;35806;47.958;13.158;2023-05-22T06:17:15;94400.75;;;22.32;34.61
49915;BME280;35806;47.958;13.158;2023-05-22T06:19:43;94401.38;;;22.80;32.77
49915;BME280;35806;47.958;13.158;2023-05-22T06:22:10;94398.09;;;22.47;31.31
49915;BME280;35806;47.958;13.158;2023-05-22T06:24:37;94400.05;;;21.16;31.54
49915;BME280;35806;47.958;13.158;2023-05-22T06:27:05;94398.46;;;21.79;32.78
49915;BME280;35806;47.958;13.158;2023-05-22T06:29:32;94399.58;;;22.39;31.54
49915;BME280;35806;47.958;13.158;2023-05-22T06:31:59;94400.07;;;22.27;31.72
49915;BME280;35806;47.958;13.158;2023-05-22T06:34:26;94399.08;;;22.40;33.24
49915;BME280;35806;47.958;13.158;2023-05-22T06:36:53;94398.97;;;22.30;32.82
49915;BME280;35806;47.958;13.158;2023-05-22T06:39:20;94396.87;;;21.97;33.75
49915;BME280;35806;47.958;13.158;2023-05-22T06:41:48;94396.66;;;22.96;34.60
49915;BME280;35806;47.958;13.158;2023-05-22T06:44:15;94397.12;;;22.89;33.65
49915;BME280;35806;47.958;13.158;2023-05-22T06:46:42;94397.16;;;22.93;32.41
49915;BME280;35806;47.958;13.158;2023-05-22T06:49:09;94395.03;;;23.62;34.03
49915;BME280;35806;47.958;13.158;2023-05-22T06:51:37;94399.17;;;23.59;30.72
49915;BME280;35806;47.958;13.158;2023-05-22T06:54:04;94401.10;;;24.19;30.69
49915;BME280;35806;47.958;13.158;2023-05-22T06:56:31;94399.48;;;24.30;30.74
49915;BME280;35806;47.958;13.158;2023-05-22T06:58:58;94398.82;;;24.10;30.15
49915;BME280;35806;47.958;13.158;2023-05-22T07:01:25;94403.96;;;23.10;30.32
49915;BME280;35806;47.958;13.158;2023-05-22T07:03:53;94402.38;;;23.73;30.29
49915;BME280;35806;47.958;13.158;2023-05-22T07:06:21;94404.52;;;24.27;33.19
49915;BME280;35806;47.958;13.158;2023-05-22T07:08:48;94406.54;;;25.06;30.26
49915;BME280;35806;47.958;13.158;2023-05-22T07:11:16;94406.86;;;25.06;32.09
49915;BME280;35806;47.958;13.158;2023-05-22T07:13:43;94408.94;;;24.40;29.27
49915;BME280;35806;47.958;13.158;2023-05-22T07:16:10;94408.56;;;24.89;29.77
49915;BME280;35806;47.958;13.158;2023-05-22T07:18:38;94412.06;;;24.46;30.29
49915;BME280;35806;47.958;13.158;2023-05-22T07:21:05;94410.05;;;25.19;30.22
49915;BME280;35806;47.958;13.158;2023-05-22T07:23:33;94410.93;;;24.69;28.40
49915;BME280;35806;47.958;13.158;2023-05-22T07:26:00;94411.35;;;25.16;27.59
49915;BME280;35806;47.958;13.158;2023-05-22T07:28:29;94411.78;;;25.88;28.95
49915;BME280;35806;47.958;13.158;2023-05-22T07:30:56;94414.38;;;26.01;27.42
49915;BME280;35806;47.958;13.158;2023-05-22T07:33:24;94415.48;;;25.72;25.43
49915;BME280;35806;47.958;13.158;2023-05-22T07:35:52;94414.82;;;26.40;25.56
49915;BME280;35806;47.958;13.158;2023-05-22T07:38:19;94414.98;;;26.50;27.55
49915;BME280;35806;47.958;13.158;2023-05-22T07:40:46;94415.63;;;26.61;25.69
49915;BME280;35806;47.958;13.158;2023-05-22T07:43:13;94418.48;;;26.73;24.75
49915;BME280;35806;47.958;13.158;2023-05-22T07:45:41;94419.36;;;26.99;25.11
49915;BME280;35806;47.958;13.158;2023-05-22T07:48:08;94418.28;;;26.65;29.39
49915;BME280;35806;47.958;13.158;2023-05-22T07:50:35;94419.46;;;26.43;24.46
49915;BME280;35806;47.958;13.158;2023-05-22T07:53:02;94421.36;;;27.39;26.34
49915;BME280;35806;47.958;13.158;2023-05-22T07:55:30;94421.18;;;25.86;27.86
49915;BME280;35806;47.958;13.158;2023-05-22T07:57:57;94420.03;;;25.46;25.98
49915;BME280;35806;47.958;13.158;2023-05-22T08:00:24;94418.61;;;25.85;24.72
49915;BME280;35806;47.958;13.158;2023-05-22T08:02:52;94419.00;;;26.07;27.22
49915;BME280;35806;47.958;13.158;2023-05-22T08:05:18;94417.86;;;26.68;23.64
49915;BME280;35806;47.958;13.158;2023-05-22T08:07:46;94416.52;;;26.62;23.03
49915;BME280;35806;47.958;13.158;2023-05-22T08:10:15;94413.82;;;26.86;23.28
49915;BME280;35806;47.958;13.158;2023-05-22T08:12:43;94413.06;;;27.13;23.97
49915;BME280;35806;47.958;13.158;2023-05-22T08:15:11;94408.29;;;27.99;23.89
49915;BME280;35806;47.958;13.158;2023-05-22T08:17:38;94412.63;;;28.07;24.19
49915;BME280;35806;47.958;13.158;2023-05-22T08:20:06;94411.52;;;27.75;22.50
49915;BME280;35806;47.958;13.158;2023-05-22T08:22:33;94410.90;;;28.46;23.61
49915;BME280;35806;47.958;13.158;2023-05-22T08:25:00;94415.99;;;28.40;21.45
49915;BME280;35806;47.958;13.158;2023-05-22T08:27:28;94413.91;;;28.19;27.37
49915;BME280;35806;47.958;13.158;2023-05-22T08:29:55;94409.79;;;27.84;25.31
49915;BME280;35806;47.958;13.158;2023-05-22T08:32:22;94413.54;;;27.55;23.21
49915;BME280;35806;47.958;13.158;2023-05-22T08:34:50;94413.78;;;27.27;24.23
49915;BME280;35806;47.958;13.158;2023-05-22T08:37:17;94412.60;;;27.42;22.06
49915;BME280;35806;47.958;13.158;2023-05-22T08:39:44;94410.49;;;28.34;22.30
49915;BME280;35806;47.958;13.158;2023-05-22T08:42:12;94410.38;;;27.85;25.75
49915;BME280;35806;47.958;13.158;2023-05-22T08:44:39;94408.83;;;27.82;21.03
49915;BME280;35806;47.958;13.158;2023-05-22T08:47:07;94408.52;;;28.11;21.58
49915;BME280;35806;47.958;13.158;2023-05-22T08:49:35;94406.91;;;27.77;25.95
49915;BME280;35806;47.958;13.158;2023-05-22T08:52:11;94407.79;;;28.15;25.37
49915;BME280;35806;47.958;13.158;2023-05-22T08:54:41;94409.33;;;27.39;28.57
49915;BME280;35806;47.958;13.158;2023-05-22T08:57:08;94406.68;;;28.04;24.18
49915;BME280;35806;47.958;13.158;2023-05-22T08:59:38;94406.26;;;28.38;25.75
49915;BME280;35806;47.958;13.158;2023-05-22T09:02:06;94407.13;;;28.20;22.18
49915;BME280;35806;47.958;13.158;2023-05-22T09:04:34;94405.89;;;28.99;22.31
49915;BME280;35806;47.958;13.158;2023-05-22T09:07:06;94405.40;;;29.13;19.86
49915;BME280;35806;47.958;13.158;2023-05-22T09:09:35;94409.74;;;29.07;20.30
49915;BME280;35806;47.958;13.158;2023-05-22T09:12:06;94407.98;;;27.64;22.11
49915;BME280;35806;47.958;13.158;2023-05-22T09:14:40;94408.19;;;27.48;22.70
49915;BME280;35806;47.958;13.158;2023-05-22T09:17:08;94406.14;;;26.93;22.42
49915;BME280;35806;47.958;13.158;2023-05-22T09:19:36;94406.47;;;25.70;24.35
49915;BME280;35806;47.958;13.158;2023-05-22T09:22:04;94406.72;;;26.66;24.60
49915;BME280;35806;47.958;13.158;2023-05-22T09:24:37;94403.66;;;26.16;21.39
49915;BME280;35806;47.958;13.158;2023-05-22T09:27:05;94407.28;;;26.28;21.89
49915;BME280;35806;47.958;13.158;2023-05-22T09:29:46;94406.98;;;26.73;23.21
49915;BME280;35806;47.958;13.158;2023-05-22T09:32:13;94408.18;;;27.28;24.66
49915;BME280;35806;47.958;13.158;2023-05-22T09:34:40;94406.02;;;27.56;23.39
49915;BME280;35806;47.958;13.158;2023-05-22T09:37:08;94407.38;;;27.34;20.72
49915;BME280;35806;47.958;13.158;2023-05-22T09:39:39;94407.68;;;28.47;21.08
49915;BME280;35806;47.958;13.158;2023-05-22T09:42:07;94409.09;;;28.43;20.83
49915;BME280;35806;47.958;13.158;2023-05-22T09:44:35;94412.14;;;28.85;21.36
49915;BME280;35806;47.958;13.158;2023-05-22T09:47:04;94412.49;;;30.52;19.14
49915;BME280;35806;47.958;13.158;2023-05-22T09:49:35;94412.20;;;29.45;21.66
49915;BME280;35806;47.958;13.158;2023-05-22T09:52:03;94416.42;;;27.71;21.55
49915;BME280;35806;47.958;13.158;2023-05-22T09:54:34;94413.43;;;27.35;23.73
49915;BME280;35806;47.958;13.158;2023-05-22T09:57:02;94413.87;;;27.40;22.54
49915;BME280;35806;47.958;13.158;2023-05-22T09:59:32;94413.76;;;27.58;21.99
49915;BME280;35806;47.958;13.158;2023-05-22T10:02:01;94408.23;;;27.78;23.27
49915;BME280;35806;47.958;13.158;2023-05-22T10:04:31;94406.59;;;27.82;26.82
49915;BME280;35806;47.958;13.158;2023-05-22T10:07:01;94407.42;;;27.64;22.76
49915;BME280;35806;47.958;13.158;2023-05-22T10:09:30;94407.84;;;27.50;22.41
49915;BME280;35806;47.958;13.158;2023-05-22T10:12:04;94406.36;;;26.80;22.43
49915;BME280;35806;47.958;13.158;2023-05-22T10:14:33;94407.07;;;27.09;24.50
49915;BME280;35806;47.958;13.158;2023-05-22T10:17:02;94405.61;;;28.09;22.30
49915;BME280;35806;47.958;13.158;2023-05-22T10:19:29;94403.99;;;28.70;20.50
49915;BME280;35806;47.958;13.158;2023-05-22T10:21:59;94399.81;;;28.46;20.90
49915;BME280;35806;47.958;13.158;2023-05-22T10:24:27;94390.47;;;29.79;21.66
49915;BME280;35806;47.958;13.158;2023-05-22T10:26:55;94393.02;;;29.41;21.84
49915;BME280;35806;47.958;13.158;2023-05-22T10:29:27;94393.39;;;28.20;25.94
49915;BME280;35806;47.958;13.158;2023-05-22T10:32:03;94390.02;;;26.82;24.57
49915;BME280;35806;47.958;13.158;2023-05-22T10:34:38;94392.54;;;27.65;23.76
49915;BME280;35806;47.958;13.158;2023-05-22T10:37:15;94385.38;;;28.09;24.34
49915;BME280;35806;47.958;13.158;2023-05-22T10:39:53;94385.71;;;28.84;21.49
49915;BME280;35806;47.958;13.158;2023-05-22T10:42:28;94384.13;;;29.36;23.89
49915;BME280;35806;47.958;13.158;2023-05-22T10:44:57;94386.95;;;28.40;20.50
49915;BME280;35806;47.958;13.158;2023-05-22T10:47:25;94385.20;;;28.82;23.05
49915;BME280;35806;47.958;13.158;2023-05-22T10:50:03;94380.74;;;28.36;21.91
49915;BME280;35806;47.958;13.158;2023-05-22T10:52:30;94382.29;;;27.85;25.63
49915;BME280;35806;47.958;13.158;2023-05-22T10:54:59;94380.43;;;28.64;21.12
49915;BME280;35806;47.958;13.158;2023-05-22T10:57:31;94377.83;;;28.85;22.76
49915;BME280;35806;47.958;13.158;2023-05-22T11:00:09;94376.69;;;28.66;22.57
49915;BME280;35806;47.958;13.158;2023-05-22T11:02:39;94370.82;;;29.37;20.60
49915;BME280;35806;47.958;13.158;2023-05-22T11:05:38;94369.78;;;29.78;23.31
49915;BME280;35806;47.958;13.158;2023-05-22T11:08:11;94371.31;;;29.84;21.97
49915;BME280;35806;47.958;13.158;2023-05-22T11:11:10;94367.77;;;31.01;22.07
49915;BME280;35806;47.958;13.158;2023-05-22T11:13:38;94366.39;;;30.10;19.48
49915;BME280;35806;47.958;13.158;2023-05-22T11:16:07;94365.50;;;30.83;21.31
49915;BME280;35806;47.958;13.158;2023-05-22T11:18:34;94366.15;;;31.10;20.71
49915;BME280;35806;47.958;13.158;2023-05-22T11:21:02;94363.19;;;30.04;21.67
49915;BME280;35806;47.958;13.158;2023-05-22T11:23:33;94363.29;;;28.60;21.61
49915;BME280;35806;47.958;13.158;2023-05-22T11:26:17;94364.00;;;28.92;23.51
49915;BME280;35806;47.958;13.158;2023-05-22T11:28:48;94356.87;;;29.62;22.94
49915;BME280;35806;47.958;13.158;2023-05-22T11:31:16;94355.86;;;30.25;23.74
49915;BME280;35806;47.958;13.158;2023-05-22T11:33:45;94358.55;;;29.39;20.07
49915;BME280;35806;47.958;13.158;2023-05-22T11:36:12;94357.77;;;29.41;20.68
49915;BME280;35806;47.958;13.158;2023-05-22T11:38:41;94355.71;;;29.45;21.24
49915;BME280;35806;47.958;13.158;2023-05-22T11:41:08;94353.26;;;29.08;20.18
49915;BME280;35806;47.958;13.158;2023-05-22T11:43:36;94349.61;;;29.29;20.89
49915;BME280;35806;47.958;13.158;2023-05-22T11:46:05;94349.10;;;28.34;20.27
49915;BME280;35806;47.958;13.158;2023-05-22T11:48:33;94350.10;;;27.56;23.12
49915;BME280;35806;47.958;13.158;2023-05-22T11:51:01;94345.38;;;28.17;21.31
49915;BME280;35806;47.958;13.158;2023-05-22T11:53:30;94345.56;;;28.40;20.75
49915;BME280;35806;47.958;13.158;2023-05-22T11:56:01;94344.17;;;27.90;21.69
49915;BME280;35806;47.958;13.158;2023-05-22T11:58:29;94342.29;;;28.35;22.55
49915;BME280;35806;47.958;13.158;2023-05-22T12:00:58;94346.40;;;28.92;22.41
49915;BME280;35806;47.958;13.158;2023-05-22T12:03:25;94336.54;;;28.89;21.72
49915;BME280;35806;47.958;13.158;2023-05-22T12:05:53;94342.55;;;28.18;21.45
49915;BME280;35806;47.958;13.158;2023-05-22T12:08:21;94342.83;;;28.59;21.74
49915;BME280;35806;47.958;13.158;2023-05-22T12:10:50;94341.72;;;28.67;21.56
49915;BME280;35806;47.958;13.158;2023-05-22T12:13:26;94340.95;;;30.01;20.53
49915;BME280;35806;47.958;13.158;2023-05-22T12:15:56;94337.62;;;29.40;20.24
49915;BME280;35806;47.958;13.158;2023-05-22T12:18:24;94339.20;;;29.26;20.37
49915;BME280;35806;47.958;13.158;2023-05-22T12:20:52;94339.34;;;29.82;19.70
49915;BME280;35806;47.958;13.158;2023-05-22T12:23:22;94336.82;;;30.20;19.01
49915;BME280;35806;47.958;13.158;2023-05-22T12:25:58;94329.86;;;29.56;21.05
49915;BME280;35806;47.958;13.158;2023-05-22T12:28:26;94329.02;;;28.58;21.92
49915;BME280;35806;47.958;13.158;2023-05-22T12:30:54;94328.58;;;28.08;21.89
49915;BME280;35806;47.958;13.158;2023-05-22T12:33:26;94329.08;;;27.97;21.13
49915;BME280;35806;47.958;13.158;2023-05-22T12:35:53;94328.31;;;28.13;22.58
49915;BME280;35806;47.958;13.158;2023-05-22T12:38:21;94324.95;;;28.98;20.14
49915;BME280;35806;47.958;13.158;2023-05-22T12:40:50;94324.82;;;28.92;20.77
49915;BME280;35806;47.958;13.158;2023-05-22T12:43:18;94323.31;;;30.19;20.13
49915;BME280;35806;47.958;13.158;2023-05-22T12:45:45;94320.17;;;30.02;21.62
49915;BME280;35806;47.958;13.158;2023-05-22T12:48:12;94317.31;;;29.02;22.48
49915;BME280;35806;47.958;13.158;2023-05-22T12:50:40;94318.80;;;27.67;21.50
49915;BME280;35806;47.958;13.158;2023-05-22T12:53:07;94319.51;;;27.85;24.81
49915;BME280;35806;47.958;13.158;2023-05-22T12:55:34;94315.14;;;28.37;22.85
49915;BME280;35806;47.958;13.158;2023-05-22T12:58:02;94316.05;;;28.07;23.19
49915;BME280;35806;47.958;13.158;2023-05-22T13:00:29;94312.49;;;28.49;22.65
49915;BME280;35806;47.958;13.158;2023-05-22T13:02:56;94310.75;;;28.49;22.35
49915;BME280;35806;47.958;13.158;2023-05-22T13:05:24;94311.27;;;28.93;21.86
49915;BME280;35806;47.958;13.158;2023-05-22T13:07:51;94306.87;;;29.66;22.88
49915;BME280;35806;47.958;13.158;2023-05-22T13:10:19;94306.58;;;27.97;21.25